sensor_id;sensor_type;location;lat;lon;timestamp;P1;durP1;ratioP1;P2;durP2;ratioP2
6725;SDS011;3400;48.506;11.692;2023-04-08T00:00:49;11.23;;;9.57;;
6725;SDS011;3400;48.506;11.692;2023-04-08T00:03:17;10.57;;;9.47;;
6725;SDS011;3400;48.506;11.692;2023-04-08T00:05:45;12.40;;;10.77;;
6725;SDS011;3400;48.506;11.692;2023-04-08T00:08:13;11.03;;;9.70;;
6725;SDS011;3400;48.506;11.692;2023-04-08T00:10:40;11.87;;;10.10;;
6725;SDS011;3400;48.506;11.692;2023-04-08T00:13:09;12.97;;;9.93;;
6725;SDS011;3400;48.506;11.692;2023-04-08T00:15:37;12.60;;;10.27;;
6725;SDS011;3400;48.506;11.692;2023-04-08T00:18:05;12.50;;;11.20;;
6725;SDS011;3400;48.506;11.692;2023-04-08T00:20:33;12.47;;;10.23;;
6725;SDS011;3400;48.506;11.692;2023-04-08T00:23:01;12.10;;;10.63;;
6725;SDS011;3400;48.506;11.692;2023-04-08T00:25:29;12.73;;;10.47;;
6725;SDS011;3400;48.506;11.692;2023-04-08T00:27:57;10.53;;;9.20;;
6725;SDS011;3400;48.506;11.692;2023-04-08T00:30:26;12.10;;;10.63;;
6725;SDS011;3400;48.506;11.692;2023-04-08T00:32:54;11.47;;;9.90;;
6725;SDS011;3400;48.506;11.692;2023-04-08T00:35:22;12.07;;;10.23;;
6725;SDS011;3400;48.506;11.692;2023-04-08T00:37:50;12.23;;;10.00;;
6725;SDS011;3400;48.506;11.692;2023-04-08T00:40:18;12.03;;;10.10;;
6725;SDS011;3400;48.506;11.692;2023-04-08T00:42:45;11.40;;;9.97;;
6725;SDS011;3400;48.506;11.692;2023-04-08T00:45:13;12.43;;;10.57;;
6725;SDS011;3400;48.506;11.692;2023-04-08T00:47:42;11.40;;;10.33;;
6725;SDS011;3400;48.506;11.692;2023-04-08T00:50:11;12.43;;;10.77;;
6725;SDS011;3400;48.506;11.692;2023-04-08T00:52:39;12.03;;;9.43;;
6725;SDS011;3400;48.506;11.692;2023-04-08T00:55:06;11.73;;;9.93;;
6725;SDS011;3400;48.506;11.692;2023-04-08T00:57:34;12.73;;;10.37;;
6725;SDS011;3400;48.506;11.692;2023-04-08T01:00:02;13.27;;;10.73;;
6725;SDS011;3400;48.506;11.692;2023-04-08T01:02:33;15.33;;;11.80;;
6725;SDS011;3400;48.506;11.692;2023-04-08T01:05:05;12.40;;;10.27;;
6725;SDS011;3400;48.506;11.692;2023-04-08T01:07:34;13.07;;;11.03;;
6725;SDS011;3400;48.506;11.692;2023-04-08T01:10:04;16.03;;;11.30;;
6725;SDS011;3400;48.506;11.692;2023-04-08T01:12:34;11.17;;;9.87;;
6725;SDS011;3400;48.506;11.692;2023-04-08T01:15:04;11.67;;;10.47;;
6725;SDS011;3400;48.506;11.692;2023-04-08T01:17:32;13.03;;;10.70;;
6725;SDS011;3400;48.506;11.692;2023-04-08T01:20:01;11.67;;;10.03;;
6725;SDS011;3400;48.506;11.692;2023-04-08T01:22:33;12.20;;;10.30;;
6725;SDS011;3400;48.506;11.692;2023-04-08T01:25:04;10.97;;;9.87;;
6725;SDS011;3400;48.506;11.692;2023-04-08T01:27:35;12.87;;;11.20;;
6725;SDS011;3400;48.506;11.692;2023-04-08T01:30:04;12.20;;;9.97;;
6725;SDS011;3400;48.506;11.692;2023-04-08T01:32:32;12.17;;;10.57;;
6725;SDS011;3400;48.506;11.692;2023-04-08T01:35:00;15.30;;;10.50;;
6725;SDS011;3400;48.506;11.692;2023-04-08T01:37:29;14.10;;;10.60;;
6725;SDS011;3400;48.506;11.692;2023-04-08T01:39:57;13.50;;;10.20;;
6725;SDS011;3400;48.506;11.692;2023-04-08T01:42:25;13.60;;;11.23;;
6725;SDS011;3400;48.506;11.692;2023-04-08T01:44:56;12.13;;;10.80;;
6725;SDS011;3400;48.506;11.692;2023-04-08T01:47:24;12.97;;;10.50;;
6725;SDS011;3400;48.506;11.692;2023-04-08T01:49:52;12.60;;;11.17;;
6725;SDS011;3400;48.506;11.692;2023-04-08T01:52:21;12.00;;;10.80;;
6725;SDS011;3400;48.506;11.692;2023-04-08T01:54:49;13.90;;;11.00;;
6725;SDS011;3400;48.506;11.692;2023-04-08T01:57:18;11.30;;;9.80;;
6725;SDS011;3400;48.506;11.692;2023-04-08T01:59:49;11.83;;;9.40;;
6725;SDS011;3400;48.506;11.692;2023-04-08T02:02:19;11.63;;;10.40;;
6725;SDS011;3400;48.506;11.692;2023-04-08T02:04:47;12.73;;;10.50;;
6725;SDS011;3400;48.506;11.692;2023-04-08T02:07:15;10.90;;;9.80;;
6725;SDS011;3400;48.506;11.692;2023-04-08T02:09:43;12.87;;;11.13;;
6725;SDS011;3400;48.506;11.692;2023-04-08T02:12:11;12.77;;;10.10;;
6725;SDS011;3400;48.506;11.692;2023-04-08T02:14:38;10.93;;;9.83;;
6725;SDS011;3400;48.506;11.692;2023-04-08T02:17:08;13.37;;;11.20;;
6725;SDS011;3400;48.506;11.692;2023-04-08T02:19:40;11.97;;;9.90;;
6725;SDS011;3400;48.506;11.692;2023-04-08T02:22:11;13.60;;;10.50;;
6725;SDS011;3400;48.506;11.692;2023-04-08T02:24:39;13.40;;;11.43;;
6725;SDS011;3400;48.506;11.692;2023-04-08T02:27:07;12.43;;;10.40;;
6725;SDS011;3400;48.506;11.692;2023-04-08T02:29:35;17.63;;;12.60;;
6725;SDS011;3400;48.506;11.692;2023-04-08T02:32:03;18.27;;;14.03;;
6725;SDS011;3400;48.506;11.692;2023-04-08T02:34:32;17.20;;;12.87;;
6725;SDS011;3400;48.506;11.692;2023-04-08T02:37:02;16.97;;;11.80;;
6725;SDS011;3400;48.506;11.692;2023-04-08T02:39:31;14.87;;;12.50;;
6725;SDS011;3400;48.506;11.692;2023-04-08T02:41:59;15.17;;;11.90;;
6725;SDS011;3400;48.506;11.692;2023-04-08T02:44:27;18.23;;;12.27;;
6725;SDS011;3400;48.506;11.692;2023-04-08T02:46:58;12.33;;;11.07;;
6725;SDS011;3400;48.506;11.692;2023-04-08T02:49:25;14.50;;;11.73;;
6725;SDS011;3400;48.506;11.692;2023-04-08T02:51:53;18.13;;;12.70;;
6725;SDS011;3400;48.506;11.692;2023-04-08T02:54:22;12.80;;;11.47;;
6725;SDS011;3400;48.506;11.692;2023-04-08T02:56:50;15.90;;;13.13;;
6725;SDS011;3400;48.506;11.692;2023-04-08T02:59:18;15.93;;;12.80;;
6725;SDS011;3400;48.506;11.692;2023-04-08T03:01:45;14.37;;;12.87;;
6725;SDS011;3400;48.506;11.692;2023-04-08T03:04:13;15.70;;;13.53;;
6725;SDS011;3400;48.506;11.692;2023-04-08T03:06:41;13.43;;;11.50;;
6725;SDS011;3400;48.506;11.692;2023-04-08T03:09:08;14.17;;;12.27;;
6725;SDS011;3400;48.506;11.692;2023-04-08T03:11:37;15.43;;;13.00;;
6725;SDS011;3400;48.506;11.692;2023-04-08T03:14:05;13.83;;;12.40;;
6725;SDS011;3400;48.506;11.692;2023-04-08T03:16:33;15.00;;;13.07;;
6725;SDS011;3400;48.506;11.692;2023-04-08T03:19:00;13.17;;;11.77;;
6725;SDS011;3400;48.506;11.692;2023-04-08T03:21:28;14.57;;;12.70;;
6725;SDS011;3400;48.506;11.692;2023-04-08T03:23:56;14.10;;;12.60;;
6725;SDS011;3400;48.506;11.692;2023-04-08T03:26:24;17.23;;;11.83;;
6725;SDS011;3400;48.506;11.692;2023-04-08T03:28:54;17.90;;;12.50;;
6725;SDS011;3400;48.506;11.692;2023-04-08T03:31:21;14.93;;;12.17;;
6725;SDS011;3400;48.506;11.692;2023-04-08T03:33:49;14.67;;;11.57;;
6725;SDS011;3400;48.506;11.692;2023-04-08T03:36:17;17.57;;;13.20;;
6725;SDS011;3400;48.506;11.692;2023-04-08T03:38:44;18.13;;;14.13;;
6725;SDS011;3400;48.506;11.692;2023-04-08T03:41:12;15.80;;;13.63;;
6725;SDS011;3400;48.506;11.692;2023-04-08T03:43:40;15.67;;;13.03;;
6725;SDS011;3400;48.506;11.692;2023-04-08T03:46:09;15.80;;;12.70;;
6725;SDS011;3400;48.506;11.692;2023-04-08T03:48:36;17.27;;;13.83;;
6725;SDS011;3400;48.506;11.692;2023-04-08T03:51:04;13.97;;;11.87;;
6725;SDS011;3400;48.506;11.692;2023-04-08T03:53:32;15.53;;;12.50;;
6725;SDS011;3400;48.506;11.692;2023-04-08T03:55:59;14.00;;;10.97;;
6725;SDS011;3400;48.506;11.692;2023-04-08T03:58:28;14.30;;;11.23;;
6725;SDS011;3400;48.506;11.692;2023-04-08T04:00:56;14.97;;;11.90;;
6725;SDS011;3400;48.506;11.692;2023-04-08T04:03:25;15.03;;;12.13;;
6725;SDS011;3400;48.506;11.692;2023-04-08T04:05:53;16.43;;;12.70;;
6725;SDS011;3400;48.506;11.692;2023-04-08T04:08:21;17.90;;;12.87;;
6725;SDS011;3400;48.506;11.692;2023-04-08T04:10:48;16.27;;;12.73;;
6725;SDS011;3400;48.506;11.692;2023-04-08T04:13:16;15.10;;;13.30;;
6725;SDS011;3400;48.506;11.692;2023-04-08T04:15:44;15.23;;;12.73;;
6725;SDS011;3400;48.506;11.692;2023-04-08T04:18:12;15.73;;;12.70;;
6725;SDS011;3400;48.506;11.692;2023-04-08T04:20:41;17.97;;;13.40;;
6725;SDS011;3400;48.506;11.692;2023-04-08T04:23:09;17.63;;;13.53;;
6725;SDS011;3400;48.506;11.692;2023-04-08T04:25:39;17.40;;;13.60;;
6725;SDS011;3400;48.506;11.692;2023-04-08T04:28:07;18.57;;;13.90;;
6725;SDS011;3400;48.506;11.692;2023-04-08T04:30:35;14.90;;;13.03;;
6725;SDS011;3400;48.506;11.692;2023-04-08T04:33:03;19.33;;;13.53;;
6725;SDS011;3400;48.506;11.692;2023-04-08T04:35:31;17.27;;;14.13;;
6725;SDS011;3400;48.506;11.692;2023-04-08T04:38:00;16.23;;;14.50;;
6725;SDS011;3400;48.506;11.692;2023-04-08T04:40:30;22.37;;;15.57;;
6725;SDS011;3400;48.506;11.692;2023-04-08T04:42:57;21.30;;;16.93;;
6725;SDS011;3400;48.506;11.692;2023-04-08T04:45:25;25.17;;;17.10;;
6725;SDS011;3400;48.506;11.692;2023-04-08T04:47:53;26.63;;;18.47;;
6725;SDS011;3400;48.506;11.692;2023-04-08T04:50:20;29.70;;;18.37;;
6725;SDS011;3400;48.506;11.692;2023-04-08T04:52:48;31.83;;;19.60;;
6725;SDS011;3400;48.506;11.692;2023-04-08T04:55:17;29.20;;;18.73;;
6725;SDS011;3400;48.506;11.692;2023-04-08T04:57:47;25.83;;;17.53;;
6725;SDS011;3400;48.506;11.692;2023-04-08T05:00:14;74.23;;;27.67;;
6725;SDS011;3400;48.506;11.692;2023-04-08T05:02:42;62.37;;;27.57;;
6725;SDS011;3400;48.506;11.692;2023-04-08T05:05:10;43.43;;;23.07;;
6725;SDS011;3400;48.506;11.692;2023-04-08T05:07:37;47.10;;;23.27;;
6725;SDS011;3400;48.506;11.692;2023-04-08T05:10:05;36.53;;;20.27;;
6725;SDS011;3400;48.506;11.692;2023-04-08T05:12:35;55.00;;;25.60;;
6725;SDS011;3400;48.506;11.692;2023-04-08T05:15:03;64.40;;;28.93;;
6725;SDS011;3400;48.506;11.692;2023-04-08T05:17:31;73.13;;;31.43;;
6725;SDS011;3400;48.506;11.692;2023-04-08T05:19:59;54.23;;;25.87;;
6725;SDS011;3400;48.506;11.692;2023-04-08T05:22:27;45.50;;;23.47;;
6725;SDS011;3400;48.506;11.692;2023-04-08T05:24:54;44.87;;;23.23;;
6725;SDS011;3400;48.506;11.692;2023-04-08T05:27:22;45.77;;;22.37;;
6725;SDS011;3400;48.506;11.692;2023-04-08T05:29:51;60.33;;;25.80;;
6725;SDS011;3400;48.506;11.692;2023-04-08T05:32:19;40.67;;;23.03;;
6725;SDS011;3400;48.506;11.692;2023-04-08T05:34:47;39.97;;;21.00;;
6725;SDS011;3400;48.506;11.692;2023-04-08T05:37:14;38.37;;;20.47;;
6725;SDS011;3400;48.506;11.692;2023-04-08T05:39:42;30.37;;;19.00;;
6725;SDS011;3400;48.506;11.692;2023-04-08T05:42:10;29.43;;;18.37;;
6725;SDS011;3400;48.506;11.692;2023-04-08T05:44:38;36.93;;;21.80;;
6725;SDS011;3400;48.506;11.692;2023-04-08T05:47:09;41.50;;;24.00;;
6725;SDS011;3400;48.506;11.692;2023-04-08T05:49:37;32.60;;;19.47;;
6725;SDS011;3400;48.506;11.692;2023-04-08T05:52:05;29.30;;;18.23;;
6725;SDS011;3400;48.506;11.692;2023-04-08T05:54:33;26.20;;;18.53;;
6725;SDS011;3400;48.506;11.692;2023-04-08T05:57:00;34.33;;;20.13;;
6725;SDS011;3400;48.506;11.692;2023-04-08T05:59:28;28.30;;;18.87;;
6725;SDS011;3400;48.506;11.692;2023-04-08T06:01:56;31.67;;;19.77;;
6725;SDS011;3400;48.506;11.692;2023-04-08T06:04:25;26.37;;;17.40;;
6725;SDS011;3400;48.506;11.692;2023-04-08T06:06:52;19.43;;;15.63;;
6725;SDS011;3400;48.506;11.692;2023-04-08T06:09:22;20.10;;;15.70;;
6725;SDS011;3400;48.506;11.692;2023-04-08T06:11:50;21.07;;;15.33;;
6725;SDS011;3400;48.506;11.692;2023-04-08T06:14:17;16.97;;;13.90;;
6725;SDS011;3400;48.506;11.692;2023-04-08T06:16:46;27.07;;;17.47;;
6725;SDS011;3400;48.506;11.692;2023-04-08T06:19:13;17.67;;;14.27;;
6725;SDS011;3400;48.506;11.692;2023-04-08T06:21:42;18.27;;;14.53;;
6725;SDS011;3400;48.506;11.692;2023-04-08T06:24:10;19.40;;;14.47;;
6725;SDS011;3400;48.506;11.692;2023-04-08T06:26:38;16.10;;;13.53;;
6725;SDS011;3400;48.506;11.692;2023-04-08T06:29:06;16.00;;;13.47;;
6725;SDS011;3400;48.506;11.692;2023-04-08T06:31:33;16.90;;;13.60;;
6725;SDS011;3400;48.506;11.692;2023-04-08T06:34:01;19.57;;;13.87;;
6725;SDS011;3400;48.506;11.692;2023-04-08T06:36:29;16.80;;;14.10;;
6725;SDS011;3400;48.506;11.692;2023-04-08T06:38:58;17.30;;;14.77;;
6725;SDS011;3400;48.506;11.692;2023-04-08T06:41:25;15.83;;;13.93;;
6725;SDS011;3400;48.506;11.692;2023-04-08T06:44:00;18.97;;;14.20;;
6725;SDS011;3400;48.506;11.692;2023-04-08T06:46:28;20.67;;;14.83;;
6725;SDS011;3400;48.506;11.692;2023-04-08T06:48:56;15.67;;;12.97;;
6725;SDS011;3400;48.506;11.692;2023-04-08T06:51:23;15.23;;;12.77;;
6725;SDS011;3400;48.506;11.692;2023-04-08T06:53:52;15.57;;;12.50;;
6725;SDS011;3400;48.506;11.692;2023-04-08T06:56:21;15.03;;;12.77;;
6725;SDS011;3400;48.506;11.692;2023-04-08T06:58:50;14.07;;;12.17;;
6725;SDS011;3400;48.506;11.692;2023-04-08T07:01:18;14.87;;;12.67;;
6725;SDS011;3400;48.506;11.692;2023-04-08T07:03:46;17.47;;;12.70;;
6725;SDS011;3400;48.506;11.692;2023-04-08T07:06:14;15.17;;;12.63;;
6725;SDS011;3400;48.506;11.692;2023-04-08T07:08:42;14.23;;;12.67;;
6725;SDS011;3400;48.506;11.692;2023-04-08T07:11:10;14.10;;;12.50;;
6725;SDS011;3400;48.506;11.692;2023-04-08T07:13:39;14.60;;;12.07;;
6725;SDS011;3400;48.506;11.692;2023-04-08T07:16:07;15.30;;;13.03;;
6725;SDS011;3400;48.506;11.692;2023-04-08T07:18:34;15.83;;;11.73;;
6725;SDS011;3400;48.506;11.692;2023-04-08T07:21:02;14.53;;;12.90;;
6725;SDS011;3400;48.506;11.692;2023-04-08T07:23:30;19.33;;;13.90;;
6725;SDS011;3400;48.506;11.692;2023-04-08T07:26:00;16.53;;;13.20;;
6725;SDS011;3400;48.506;11.692;2023-04-08T07:28:28;20.03;;;12.83;;
6725;SDS011;3400;48.506;11.692;2023-04-08T07:31:04;14.53;;;12.90;;
6725;SDS011;3400;48.506;11.692;2023-04-08T07:33:34;14.33;;;12.83;;
6725;SDS011;3400;48.506;11.692;2023-04-08T07:36:02;14.33;;;12.87;;
6725;SDS011;3400;48.506;11.692;2023-04-08T07:38:30;17.87;;;13.90;;
6725;SDS011;3400;48.506;11.692;2023-04-08T07:40:57;15.83;;;13.40;;
6725;SDS011;3400;48.506;11.692;2023-04-08T07:43:25;14.53;;;11.90;;
6725;SDS011;3400;48.506;11.692;2023-04-08T07:45:55;15.33;;;12.87;;
6725;SDS011;3400;48.506;11.692;2023-04-08T07:48:28;13.23;;;11.77;;
6725;SDS011;3400;48.506;11.692;2023-04-08T07:50:56;22.20;;;9.43;;
6725;SDS011;3400;48.506;11.692;2023-04-08T07:53:24;20.03;;;16.87;;
6725;SDS011;3400;48.506;11.692;2023-04-08T07:55:52;17.80;;;13.10;;
6725;SDS011;3400;48.506;11.692;2023-04-08T07:58:20;16.17;;;12.50;;
6725;SDS011;3400;48.506;11.692;2023-04-08T08:00:47;16.17;;;12.27;;
6725;SDS011;3400;48.506;11.692;2023-04-08T08:03:15;14.23;;;12.73;;
6725;SDS011;3400;48.506;11.692;2023-04-08T08:05:44;15.03;;;12.60;;
6725;SDS011;3400;48.506;11.692;2023-04-08T08:08:12;14.03;;;11.47;;
6725;SDS011;3400;48.506;11.692;2023-04-08T08:10:40;15.50;;;12.33;;
6725;SDS011;3400;48.506;11.692;2023-04-08T08:13:07;13.07;;;11.57;;
6725;SDS011;3400;48.506;11.692;2023-04-08T08:15:37;12.63;;;10.80;;
6725;SDS011;3400;48.506;11.692;2023-04-08T08:18:04;13.93;;;11.50;;
6725;SDS011;3400;48.506;11.692;2023-04-08T08:20:34;14.07;;;11.13;;
6725;SDS011;3400;48.506;11.692;2023-04-08T08:23:03;16.13;;;12.73;;
6725;SDS011;3400;48.506;11.692;2023-04-08T08:25:30;14.83;;;12.27;;
6725;SDS011;3400;48.506;11.692;2023-04-08T08:27:58;13.33;;;11.90;;
6725;SDS011;3400;48.506;11.692;2023-04-08T08:30:26;13.87;;;12.03;;
6725;SDS011;3400;48.506;11.692;2023-04-08T08:32:53;13.93;;;12.07;;
6725;SDS011;3400;48.506;11.692;2023-04-08T08:35:23;14.00;;;12.60;;
6725;SDS011;3400;48.506;11.692;2023-04-08T08:37:51;14.27;;;12.50;;
6725;SDS011;3400;48.506;11.692;2023-04-08T08:40:20;16.80;;;13.47;;
6725;SDS011;3400;48.506;11.692;2023-04-08T08:42:48;13.07;;;11.73;;
6725;SDS011;3400;48.506;11.692;2023-04-08T08:45:16;16.47;;;12.80;;
6725;SDS011;3400;48.506;11.692;2023-04-08T08:47:45;15.20;;;13.17;;
6725;SDS011;3400;48.506;11.692;2023-04-08T08:50:13;15.47;;;13.50;;
6725;SDS011;3400;48.506;11.692;2023-04-08T08:52:46;15.83;;;13.47;;
6725;SDS011;3400;48.506;11.692;2023-04-08T08:55:14;15.30;;;13.70;;
6725;SDS011;3400;48.506;11.692;2023-04-08T08:57:43;17.83;;;13.67;;
6725;SDS011;3400;48.506;11.692;2023-04-08T09:00:13;17.00;;;13.13;;
6725;SDS011;3400;48.506;11.692;2023-04-08T09:02:41;13.60;;;11.63;;
6725;SDS011;3400;48.506;11.692;2023-04-08T09:05:09;13.00;;;11.73;;
6725;SDS011;3400;48.506;11.692;2023-04-08T09:07:37;12.87;;;11.43;;
6725;SDS011;3400;48.506;11.692;2023-04-08T09:10:06;14.43;;;11.37;;
6725;SDS011;3400;48.506;11.692;2023-04-08T09:12:35;10.50;;;9.43;;
6725;SDS011;3400;48.506;11.692;2023-04-08T09:15:20;15.40;;;10.97;;
6725;SDS011;3400;48.506;11.692;2023-04-08T09:17:48;13.03;;;11.23;;
6725;SDS011;3400;48.506;11.692;2023-04-08T09:20:16;10.80;;;9.13;;
6725;SDS011;3400;48.506;11.692;2023-04-08T09:22:56;10.50;;;9.40;;
6725;SDS011;3400;48.506;11.692;2023-04-08T09:25:25;10.37;;;9.27;;
6725;SDS011;3400;48.506;11.692;2023-04-08T09:27:53;9.90;;;8.90;;
6725;SDS011;3400;48.506;11.692;2023-04-08T09:30:23;9.77;;;8.77;;
6725;SDS011;3400;48.506;11.692;2023-04-08T09:32:52;6.93;;;6.23;;
6725;SDS011;3400;48.506;11.692;2023-04-08T09:35:20;8.13;;;7.43;;
6725;SDS011;3400;48.506;11.692;2023-04-08T09:37:52;8.33;;;7.47;;
6725;SDS011;3400;48.506;11.692;2023-04-08T09:40:20;7.40;;;6.70;;
6725;SDS011;3400;48.506;11.692;2023-04-08T09:42:50;6.97;;;6.27;;
6725;SDS011;3400;48.506;11.692;2023-04-08T09:45:20;8.53;;;7.17;;
6725;SDS011;3400;48.506;11.692;2023-04-08T09:47:54;7.03;;;6.33;;
6725;SDS011;3400;48.506;11.692;2023-04-08T09:50:23;37.93;;;21.87;;
6725;SDS011;3400;48.506;11.692;2023-04-08T09:52:56;13.30;;;9.80;;
6725;SDS011;3400;48.506;11.692;2023-04-08T09:55:28;11.10;;;9.63;;
6725;SDS011;3400;48.506;11.692;2023-04-08T09:58:01;9.60;;;8.60;;
6725;SDS011;3400;48.506;11.692;2023-04-08T10:00:33;10.30;;;9.30;;
6725;SDS011;3400;48.506;11.692;2023-04-08T10:03:09;9.07;;;8.13;;
6725;SDS011;3400;48.506;11.692;2023-04-08T10:05:37;9.77;;;8.80;;
6725;SDS011;3400;48.506;11.692;2023-04-08T10:08:07;10.40;;;9.50;;
6725;SDS011;3400;48.506;11.692;2023-04-08T10:10:35;10.37;;;9.37;;
6725;SDS011;3400;48.506;11.692;2023-04-08T10:13:05;10.87;;;9.77;;
6725;SDS011;3400;48.506;11.692;2023-04-08T10:15:34;11.53;;;10.33;;
6725;SDS011;3400;48.506;11.692;2023-04-08T10:20:49;12.67;;;11.37;;
6725;SDS011;3400;48.506;11.692;2023-04-08T10:23:17;12.20;;;10.90;;
6725;SDS011;3400;48.506;11.692;2023-04-08T10:25:46;12.50;;;11.30;;
6725;SDS011;3400;48.506;11.692;2023-04-08T10:28:23;13.57;;;12.23;;
6725;SDS011;3400;48.506;11.692;2023-04-08T10:30:51;13.97;;;11.00;;
6725;SDS011;3400;48.506;11.692;2023-04-08T10:33:21;13.70;;;12.30;;
6725;SDS011;3400;48.506;11.692;2023-04-08T10:35:53;11.53;;;10.33;;
6725;SDS011;3400;48.506;11.692;2023-04-08T10:38:27;13.47;;;10.40;;
6725;SDS011;3400;48.506;11.692;2023-04-08T10:41:04;11.60;;;8.67;;
6725;SDS011;3400;48.506;11.692;2023-04-08T10:43:32;10.23;;;9.23;;
6725;SDS011;3400;48.506;11.692;2023-04-08T10:46:00;10.03;;;9.00;;
6725;SDS011;3400;48.506;11.692;2023-04-08T10:48:28;8.47;;;7.67;;
6725;SDS011;3400;48.506;11.692;2023-04-08T10:50:57;9.63;;;8.73;;
6725;SDS011;3400;48.506;11.692;2023-04-08T10:53:26;11.90;;;9.13;;
6725;SDS011;3400;48.506;11.692;2023-04-08T10:55:54;10.33;;;9.23;;
6725;SDS011;3400;48.506;11.692;2023-04-08T10:58:29;9.27;;;8.37;;
6725;SDS011;3400;48.506;11.692;2023-04-08T11:01:01;10.50;;;9.50;;
6725;SDS011;3400;48.506;11.692;2023-04-08T11:03:30;11.50;;;10.30;;
6725;SDS011;3400;48.506;11.692;2023-04-08T11:06:00;10.97;;;9.40;;
6725;SDS011;3400;48.506;11.692;2023-04-08T11:08:29;11.70;;;10.27;;
6725;SDS011;3400;48.506;11.692;2023-04-08T11:10:56;12.33;;;10.73;;
6725;SDS011;3400;48.506;11.692;2023-04-08T11:13:26;11.30;;;10.07;;
6725;SDS011;3400;48.506;11.692;2023-04-08T11:15:53;13.07;;;11.47;;
6725;SDS011;3400;48.506;11.692;2023-04-08T11:18:21;12.90;;;11.60;;
6725;SDS011;3400;48.506;11.692;2023-04-08T11:20:49;12.97;;;11.40;;
6725;SDS011;3400;48.506;11.692;2023-04-08T11:23:18;11.70;;;10.60;;
6725;SDS011;3400;48.506;11.692;2023-04-08T11:25:47;11.43;;;10.13;;
6725;SDS011;3400;48.506;11.692;2023-04-08T11:28:15;13.10;;;11.60;;
6725;SDS011;3400;48.506;11.692;2023-04-08T11:30:43;12.13;;;10.90;;
6725;SDS011;3400;48.506;11.692;2023-04-08T11:33:12;18.70;;;12.20;;
6725;SDS011;3400;48.506;11.692;2023-04-08T11:35:40;13.50;;;12.03;;
6725;SDS011;3400;48.506;11.692;2023-04-08T11:38:09;14.80;;;13.30;;
6725;SDS011;3400;48.506;11.692;2023-04-08T11:40:38;15.90;;;14.03;;
6725;SDS011;3400;48.506;11.692;2023-04-08T11:43:09;17.37;;;13.37;;
6725;SDS011;3400;48.506;11.692;2023-04-08T11:45:37;15.57;;;13.73;;
6725;SDS011;3400;48.506;11.692;2023-04-08T11:48:08;16.27;;;14.57;;
6725;SDS011;3400;48.506;11.692;2023-04-08T11:50:36;15.70;;;13.93;;
6725;SDS011;3400;48.506;11.692;2023-04-08T11:53:14;15.77;;;13.97;;
6725;SDS011;3400;48.506;11.692;2023-04-08T11:55:44;16.83;;;15.03;;
6725;SDS011;3400;48.506;11.692;2023-04-08T11:58:16;17.03;;;14.30;;
6725;SDS011;3400;48.506;11.692;2023-04-08T12:00:48;15.70;;;14.20;;
6725;SDS011;3400;48.506;11.692;2023-04-08T12:03:16;15.73;;;14.13;;
6725;SDS011;3400;48.506;11.692;2023-04-08T12:05:43;17.13;;;14.43;;
6725;SDS011;3400;48.506;11.692;2023-04-08T12:08:11;18.33;;;15.57;;
6725;SDS011;3400;48.506;11.692;2023-04-08T12:10:39;18.57;;;15.97;;
6725;SDS011;3400;48.506;11.692;2023-04-08T12:13:08;16.03;;;14.47;;
6725;SDS011;3400;48.506;11.692;2023-04-08T12:15:36;16.93;;;15.13;;
6725;SDS011;3400;48.506;11.692;2023-04-08T12:18:03;17.43;;;13.33;;
6725;SDS011;3400;48.506;11.692;2023-04-08T12:20:31;15.23;;;13.17;;
6725;SDS011;3400;48.506;11.692;2023-04-08T12:22:59;15.47;;;13.93;;
6725;SDS011;3400;48.506;11.692;2023-04-08T12:25:26;14.37;;;12.87;;
6725;SDS011;3400;48.506;11.692;2023-04-08T12:27:55;15.70;;;13.60;;
6725;SDS011;3400;48.506;11.692;2023-04-08T12:30:24;16.10;;;13.70;;
6725;SDS011;3400;48.506;11.692;2023-04-08T12:32:52;15.70;;;13.90;;
6725;SDS011;3400;48.506;11.692;2023-04-08T12:35:20;13.87;;;12.40;;
6725;SDS011;3400;48.506;11.692;2023-04-08T12:37:48;12.73;;;11.53;;
6725;SDS011;3400;48.506;11.692;2023-04-08T12:40:16;11.63;;;10.53;;
6725;SDS011;3400;48.506;11.692;2023-04-08T12:42:45;12.87;;;11.57;;
6725;SDS011;3400;48.506;11.692;2023-04-08T12:45:13;12.37;;;10.90;;
6725;SDS011;3400;48.506;11.692;2023-04-08T12:47:42;12.13;;;10.93;;
6725;SDS011;3400;48.506;11.692;2023-04-08T12:50:09;12.37;;;10.90;;
6725;SDS011;3400;48.506;11.692;2023-04-08T12:52:37;12.60;;;10.50;;
6725;SDS011;3400;48.506;11.692;2023-04-08T12:55:05;13.20;;;11.80;;
6725;SDS011;3400;48.506;11.692;2023-04-08T12:57:33;11.63;;;10.53;;
6725;SDS011;3400;48.506;11.692;2023-04-08T13:00:01;13.30;;;12.00;;
6725;SDS011;3400;48.506;11.692;2023-04-08T13:02:29;16.30;;;13.77;;
6725;SDS011;3400;48.506;11.692;2023-04-08T13:04:58;14.13;;;12.63;;
6725;SDS011;3400;48.506;11.692;2023-04-08T13:07:26;14.20;;;12.07;;
6725;SDS011;3400;48.506;11.692;2023-04-08T13:09:54;20.33;;;16.70;;
6725;SDS011;3400;48.506;11.692;2023-04-08T13:12:22;22.60;;;16.10;;
6725;SDS011;3400;48.506;11.692;2023-04-08T13:14:50;13.87;;;10.97;;
6725;SDS011;3400;48.506;11.692;2023-04-08T13:17:18;17.67;;;14.90;;
6725;SDS011;3400;48.506;11.692;2023-04-08T13:19:45;14.57;;;12.93;;
6725;SDS011;3400;48.506;11.692;2023-04-08T13:22:16;15.17;;;13.57;;
6725;SDS011;3400;48.506;11.692;2023-04-08T13:24:43;13.93;;;11.77;;
6725;SDS011;3400;48.506;11.692;2023-04-08T13:27:11;13.30;;;11.67;;
6725;SDS011;3400;48.506;11.692;2023-04-08T13:29:39;15.93;;;13.03;;
6725;SDS011;3400;48.506;11.692;2023-04-08T13:32:06;16.27;;;13.27;;
6725;SDS011;3400;48.506;11.692;2023-04-08T13:34:34;14.43;;;12.77;;
6725;SDS011;3400;48.506;11.692;2023-04-08T13:37:02;16.90;;;13.67;;
6725;SDS011;3400;48.506;11.692;2023-04-08T13:39:31;16.67;;;13.87;;
6725;SDS011;3400;48.506;11.692;2023-04-08T13:41:59;15.07;;;13.30;;
6725;SDS011;3400;48.506;11.692;2023-04-08T13:44:27;14.27;;;12.50;;
6725;SDS011;3400;48.506;11.692;2023-04-08T13:46:55;17.60;;;13.80;;
6725;SDS011;3400;48.506;11.692;2023-04-08T13:49:24;17.00;;;13.57;;
6725;SDS011;3400;48.506;11.692;2023-04-08T13:51:52;14.40;;;11.63;;
6725;SDS011;3400;48.506;11.692;2023-04-08T13:54:20;13.97;;;11.97;;
6725;SDS011;3400;48.506;11.692;2023-04-08T13:56:49;15.53;;;12.10;;
6725;SDS011;3400;48.506;11.692;2023-04-08T13:59:17;18.13;;;13.63;;
6725;SDS011;3400;48.506;11.692;2023-04-08T14:01:45;15.50;;;12.80;;
6725;SDS011;3400;48.506;11.692;2023-04-08T14:04:14;15.40;;;12.83;;
6725;SDS011;3400;48.506;11.692;2023-04-08T14:06:42;15.40;;;12.10;;
6725;SDS011;3400;48.506;11.692;2023-04-08T14:09:09;15.63;;;10.67;;
6725;SDS011;3400;48.506;11.692;2023-04-08T14:11:37;15.23;;;11.80;;
6725;SDS011;3400;48.506;11.692;2023-04-08T14:14:07;14.57;;;11.50;;
6725;SDS011;3400;48.506;11.692;2023-04-08T14:16:35;14.70;;;11.43;;
6725;SDS011;3400;48.506;11.692;2023-04-08T14:19:03;12.73;;;10.57;;
6725;SDS011;3400;48.506;11.692;2023-04-08T14:21:31;14.23;;;11.23;;
6725;SDS011;3400;48.506;11.692;2023-04-08T14:23:59;13.47;;;11.47;;
6725;SDS011;3400;48.506;11.692;2023-04-08T14:26:27;15.20;;;11.90;;
6725;SDS011;3400;48.506;11.692;2023-04-08T14:28:55;15.23;;;12.93;;
6725;SDS011;3400;48.506;11.692;2023-04-08T14:31:25;14.80;;;12.27;;
6725;SDS011;3400;48.506;11.692;2023-04-08T14:33:53;15.97;;;12.40;;
6725;SDS011;3400;48.506;11.692;2023-04-08T14:36:21;16.67;;;13.67;;
6725;SDS011;3400;48.506;11.692;2023-04-08T14:38:49;17.00;;;12.47;;
6725;SDS011;3400;48.506;11.692;2023-04-08T14:41:17;16.07;;;14.33;;
6725;SDS011;3400;48.506;11.692;2023-04-08T14:43:48;15.47;;;13.87;;
6725;SDS011;3400;48.506;11.692;2023-04-08T14:46:16;17.80;;;14.87;;